Eastern Dawn — WDE4132 — position and weather

sailwx.info

Track history (hours):
 
Tides and Currents Weather Stations Pressure Air Temp Water Temp Dewpoint Dewpoint Depression Visibility Wind Speed Wind Dir Waves Ship Positions

Eastern Dawn

Owner: EASTERN BARGE SERVICES INC, SYOSSET, NY. More information available from US FCC via Universal Licensing System and Coast Guard Vessel Documentation Center.

Last reported at 2018-Jul-23 07:30 UTC. Time now 2018-Jul-23 07:31 UTC.
Position N 40°39' W 074°10'.

Length 14 m; draft 2.5 m.

Type: Towing. MMSI: 367349170.

Date/timePositionNaut miles runAvg speedWind from/ knotsBaromVisibWave heightAir tempDewpointWater temp
2018-Jul-23 07:30N 40°39' W 074°10'1 0.1
2018-Jul-22 14:52N 40°39' W 074°09'3 6.8
2018-Jul-22 14:24N 40°39' W 074°05'3 7.0
2018-Jul-22 14:00N 40°41' W 074°02'6 0.2
2018-Jul-21 06:49N 40°46' W 073°57'2 6.9
2018-Jul-21 06:30N 40°44' W 073°58'4 7.8
2018-Jul-21 06:00N 40°41' W 074°02'3 6.5
2018-Jul-21 05:30N 40°39' W 074°05'3 5.7
2018-Jul-21 05:00N 40°39' W 074°09'3 5.3
2018-Jul-21 04:29N 40°37' W 074°12'5 0.3
2018-Jul-20 12:49N 40°32' W 074°15'0 0.0
2018-Jul-20 12:30N 40°32' W 074°15'0 0.0
2018-Jul-20 12:00N 40°32' W 074°15'0 0.0
2018-Jul-20 10:51N 40°32' W 074°15'0 0.0
2018-Jul-20 10:29N 40°32' W 074°15'0 0.0
2018-Jul-20 09:35N 40°32' W 074°15'0 0.0
2018-Jul-20 09:30N 40°32' W 074°15'0 0.0
2018-Jul-20 08:59N 40°32' W 074°15'1 1.9
2018-Jul-20 08:21N 40°33' W 074°14'3 6.5
2018-Jul-20 07:51N 40°36' W 074°12'2 6.7
2018-Jul-20 07:30N 40°38' W 074°12'4 7.1
2018-Jul-20 07:00N 40°39' W 074°07'4 7.1
2018-Jul-20 06:30N 40°41' W 074°03'3 6.1
2018-Jul-20 06:00N 40°42' W 073°60'3 5.3
2018-Jul-20 05:30N 40°45' W 073°58'1 0.1
2018-Jul-19 16:52N 40°46' W 073°57'3 8.2
2018-Jul-19 16:30N 40°43' W 073°58'4 8.0
2018-Jul-19 16:00N 40°40' W 074°02'3 6.2
2018-Jul-19 15:30N 40°39' W 074°06'3 5.2
2018-Jul-19 14:59N 40°39' W 074°09'2 0.2
2018-Jul-19 01:40N 40°37' W 074°12'2 7.1
2018-Jul-19 01:22N 40°39' W 074°10'3 7.9
2018-Jul-19 01:00N 40°39' W 074°06'4 8.1
2018-Jul-19 00:30N 40°40' W 074°01'1 1.3
2018-Jul-19 00:00N 40°40' W 074°01'0 0.0
2018-Jul-18 23:30N 40°40' W 074°01'0 0.0
2018-Jul-18 23:00N 40°40' W 074°01'0 0.0
2018-Jul-18 22:30N 40°40' W 074°01'0 0.0
2018-Jul-18 22:00N 40°40' W 074°01'0 0.0
2018-Jul-18 21:29N 40°40' W 074°01'0 0.0
2018-Jul-18 21:00N 40°40' W 074°01'0 0.0
2018-Jul-18 20:30N 40°40' W 074°01'0 0.0
2018-Jul-18 20:00N 40°40' W 074°01'0 0.0
2018-Jul-18 19:30N 40°40' W 074°01'0 0.0
2018-Jul-18 19:00N 40°40' W 074°01'0 0.0
2018-Jul-18 18:30N 40°40' W 074°01'0 0.0
2018-Jul-18 18:00N 40°40' W 074°01'0 0.0
2018-Jul-18 17:30N 40°40' W 074°01'0 0.0
2018-Jul-18 17:00N 40°40' W 074°01'0 0.0
2018-Jul-18 16:30N 40°40' W 074°01'0 0.0
2018-Jul-18 16:00N 40°40' W 074°01'0 0.0
2018-Jul-18 15:30N 40°40' W 074°01'0 0.0
2018-Jul-18 15:00N 40°40' W 074°01'0 0.0
2018-Jul-18 14:30N 40°40' W 074°01'0 0.0
2018-Jul-18 13:30N 40°40' W 074°01'0 0.0
2018-Jul-18 13:00N 40°40' W 074°01'0 0.0
2018-Jul-18 12:30N 40°40' W 074°01'0 0.0
2018-Jul-18 12:00N 40°40' W 074°01'0 0.0
2018-Jul-18 11:30N 40°40' W 074°01'0 0.0
2018-Jul-18 10:30N 40°40' W 074°01'0 0.0
2018-Jul-18 10:00N 40°40' W 074°01'0 0.0
2018-Jul-18 09:30N 40°40' W 074°01'0 0.0
2018-Jul-18 09:00N 40°40' W 074°01'0 0.0
2018-Jul-18 08:30N 40°40' W 074°01'0 0.0
2018-Jul-18 08:00N 40°40' W 074°01'0 0.0
2018-Jul-18 07:30N 40°40' W 074°01'0 0.0
2018-Jul-18 07:00N 40°40' W 074°01'0 0.0
2018-Jul-18 06:30N 40°40' W 074°01'0 0.0
2018-Jul-18 06:00N 40°40' W 074°01'0 0.0
2018-Jul-18 05:30N 40°40' W 074°01'0 0.0
2018-Jul-18 05:00N 40°40' W 074°01'0 0.0
2018-Jul-18 04:30N 40°40' W 074°01'0 0.0
2018-Jul-18 04:00N 40°40' W 074°01'0 0.0
2018-Jul-18 03:30N 40°40' W 074°01'0 0.0
2018-Jul-18 03:00N 40°40' W 074°01'0 0.0
2018-Jul-18 02:30N 40°40' W 074°01'0 0.0
2018-Jul-18 02:00N 40°40' W 074°01'0 0.0
2018-Jul-18 01:30N 40°40' W 074°01'0 0.0
2018-Jul-18 01:00N 40°40' W 074°01'0 0.0
2018-Jul-18 00:30N 40°40' W 074°01'0 0.0
2018-Jul-18 00:00N 40°40' W 074°01'0 0.0
2018-Jul-17 23:30N 40°40' W 074°01'0 0.0
2018-Jul-17 23:00N 40°40' W 074°01'0 0.0
2018-Jul-17 22:30N 40°40' W 074°01'0 0.0
2018-Jul-17 22:00N 40°40' W 074°01'0 0.0
2018-Jul-17 21:30N 40°40' W 074°01'0 0.0
2018-Jul-17 21:00N 40°40' W 074°01'0 0.0
2018-Jul-17 20:30N 40°40' W 074°01'0 0.0
2018-Jul-17 20:00N 40°40' W 074°01'0 0.0
2018-Jul-17 19:30N 40°40' W 074°01'0 0.0
2018-Jul-17 19:00N 40°40' W 074°01'0 0.0
2018-Jul-17 18:30N 40°40' W 074°01'0 0.0
2018-Jul-17 18:00N 40°40' W 074°01'0 0.0
2018-Jul-17 17:30N 40°40' W 074°01'0 0.0
2018-Jul-17 17:00N 40°40' W 074°01'0 0.0
2018-Jul-17 16:30N 40°40' W 074°01'0 0.0
2018-Jul-17 16:00N 40°40' W 074°01'0 0.0
2018-Jul-17 15:30N 40°40' W 074°01'0 0.0
2018-Jul-17 15:00N 40°40' W 074°01'0 0.0
2018-Jul-17 14:30N 40°40' W 074°01'0 0.0
2018-Jul-17 14:00N 40°40' W 074°01'0 0.0
2018-Jul-17 13:30N 40°40' W 074°01'0 0.0
2018-Jul-17 13:00N 40°40' W 074°01'0 0.0
2018-Jul-17 12:30N 40°40' W 074°01'0 0.0
2018-Jul-17 12:00N 40°40' W 074°01'0 0.0
2018-Jul-17 11:30N 40°40' W 074°01'0 0.0
2018-Jul-17 11:00N 40°40' W 074°01'0 0.0
2018-Jul-17 10:30N 40°40' W 074°01'0 0.0
2018-Jul-17 10:00N 40°40' W 074°01'0 0.0
2018-Jul-17 09:30N 40°40' W 074°01'0 0.0
2018-Jul-17 09:00N 40°40' W 074°01'0 0.0
2018-Jul-17 08:30N 40°40' W 074°01'0 0.0
2018-Jul-17 08:00N 40°40' W 074°01'0 0.0
2018-Jul-17 07:30N 40°40' W 074°01'0 0.0
2018-Jul-17 07:00N 40°40' W 074°01'0 0.0
2018-Jul-17 06:30N 40°40' W 074°01'0 0.0
2018-Jul-17 06:00N 40°40' W 074°01'0 0.0
2018-Jul-17 05:30N 40°40' W 074°01'0 0.0
2018-Jul-17 05:00N 40°40' W 074°01'0 0.0
2018-Jul-17 04:30N 40°40' W 074°01'0 0.0
2018-Jul-17 04:00N 40°40' W 074°01'0 0.0
2018-Jul-17 03:30N 40°40' W 074°01'0 0.0
2018-Jul-17 03:00N 40°40' W 074°01'0 0.0
2018-Jul-17 02:30N 40°40' W 074°01'0 0.0
2018-Jul-17 02:00N 40°40' W 074°01'0 0.0
2018-Jul-17 01:30N 40°40' W 074°01'0 0.0
2018-Jul-17 01:00N 40°40' W 074°01'0 0.0
2018-Jul-17 00:30N 40°40' W 074°01'0 0.0
2018-Jul-16 23:30N 40°40' W 074°01'0 0.0
2018-Jul-16 23:00N 40°40' W 074°01'0 0.0
2018-Jul-16 22:30N 40°40' W 074°01'0 0.0
2018-Jul-16 22:00N 40°40' W 074°01'0 0.0
2018-Jul-16 21:30N 40°40' W 074°01'0 0.0
2018-Jul-16 21:00N 40°40' W 074°01'0 0.0
2018-Jul-16 20:30N 40°40' W 074°01'0 0.0
2018-Jul-16 20:00N 40°40' W 074°01'0 0.0
2018-Jul-16 19:30N 40°40' W 074°01'0 0.0
2018-Jul-16 19:00N 40°40' W 074°01'0 0.0
2018-Jul-16 18:30N 40°40' W 074°01'0 0.0
2018-Jul-16 18:00N 40°40' W 074°01'0 0.0
2018-Jul-16 17:30N 40°40' W 074°01'0 0.0
2018-Jul-16 17:00N 40°40' W 074°01'0 0.0
2018-Jul-16 16:30N 40°40' W 074°01'0 0.0
2018-Jul-16 16:00N 40°40' W 074°01'0 0.0
2018-Jul-16 15:30N 40°40' W 074°01'0 0.0
2018-Jul-16 15:00N 40°40' W 074°01'0 0.0
2018-Jul-16 14:30N 40°40' W 074°01'0 0.0
2018-Jul-16 14:00N 40°40' W 074°01'0 0.0
2018-Jul-16 13:30N 40°40' W 074°01'0 0.0
2018-Jul-16 13:00N 40°40' W 074°01'0 0.0
2018-Jul-16 12:30N 40°40' W 074°01'0 0.0
2018-Jul-16 12:00N 40°40' W 074°01'0 0.0
2018-Jul-16 11:30N 40°40' W 074°01'0 0.0
2018-Jul-16 11:00N 40°40' W 074°01'0 0.0
2018-Jul-16 10:31N 40°40' W 074°01'0 0.0
2018-Jul-16 10:01N 40°40' W 074°01'0 0.0
2018-Jul-16 09:30N 40°40' W 074°01'0 0.0
2018-Jul-16 09:00N 40°40' W 074°01'0 0.0
2018-Jul-16 08:30N 40°40' W 074°01'0 0.0
2018-Jul-16 08:00N 40°40' W 074°01'0 0.0
2018-Jul-16 07:30N 40°40' W 074°01'0 0.0
2018-Jul-16 07:00N 40°40' W 074°01'0 0.0
2018-Jul-16 06:30N 40°40' W 074°01'0 0.0
2018-Jul-16 06:00N 40°40' W 074°01'0 0.0
2018-Jul-16 05:30N 40°40' W 074°01'0 0.0
2018-Jul-16 05:00N 40°40' W 074°01'0 0.0
2018-Jul-16 04:30N 40°40' W 074°01'0 0.0
2018-Jul-16 04:00N 40°40' W 074°01'0 0.0
2018-Jul-16 03:30N 40°40' W 074°01'0 0.0
2018-Jul-16 03:00N 40°40' W 074°01'0 0.0
2018-Jul-16 02:30N 40°40' W 074°01'0 0.0
2018-Jul-16 02:00N 40°40' W 074°01'0 0.0
2018-Jul-16 01:30N 40°40' W 074°01'0 0.0
2018-Jul-16 01:00N 40°40' W 074°01'0 0.0
2018-Jul-16 00:30N 40°40' W 074°01'0 0.0
2018-Jul-16 00:00N 40°40' W 074°01'0 0.0
2018-Jul-15 23:30N 40°40' W 074°01'0 0.0
2018-Jul-15 23:00N 40°40' W 074°01'0 0.0
2018-Jul-15 22:30N 40°40' W 074°01'0 0.0
2018-Jul-15 22:00N 40°40' W 074°01'0 0.0
2018-Jul-15 21:30N 40°40' W 074°01'0 0.0
2018-Jul-15 21:00N 40°40' W 074°01'0 0.0
2018-Jul-15 20:30N 40°40' W 074°01'0 0.0
2018-Jul-15 20:00N 40°40' W 074°01'0 0.0
2018-Jul-15 19:30N 40°40' W 074°01'0 0.0
2018-Jul-15 19:00N 40°40' W 074°01'0 0.0
2018-Jul-15 18:30N 40°40' W 074°01'0 0.0
2018-Jul-15 18:00N 40°40' W 074°01'0 0.0
2018-Jul-15 17:30N 40°40' W 074°01'0 0.0
2018-Jul-15 17:00N 40°40' W 074°01'0 0.0
2018-Jul-15 16:30N 40°40' W 074°01'0 0.0
2018-Jul-15 16:00N 40°40' W 074°01'0 0.0
2018-Jul-15 15:30N 40°40' W 074°01'0 0.0
2018-Jul-15 15:00N 40°40' W 074°01'0 0.0
2018-Jul-15 14:30N 40°40' W 074°01'0 0.0
2018-Jul-15 13:58N 40°40' W 074°01'0 0.0
2018-Jul-15 13:30N 40°40' W 074°01'0 0.0
2018-Jul-15 13:00N 40°40' W 074°01'0 0.0
2018-Jul-15 12:30N 40°40' W 074°01'0 0.0
2018-Jul-15 12:00N 40°40' W 074°01'0 0.0
2018-Jul-15 11:30N 40°40' W 074°01'0 0.0
2018-Jul-15 10:58N 40°40' W 074°01'0 0.0
2018-Jul-15 10:30N 40°40' W 074°01'0 0.0
2018-Jul-15 10:00N 40°40' W 074°01'0 0.0
2018-Jul-15 09:30N 40°40' W 074°01'0 0.0
2018-Jul-15 09:00N 40°40' W 074°01'0 0.0
2018-Jul-15 08:30N 40°40' W 074°01'0 0.0
2018-Jul-15 08:00N 40°40' W 074°01'0 0.0
2018-Jul-15 07:30N 40°40' W 074°01'0 0.0
2018-Jul-15 07:00N 40°40' W 074°01'0 0.0
2018-Jul-15 06:30N 40°40' W 074°01'0 0.0
2018-Jul-15 06:00N 40°40' W 074°01'0 0.0
2018-Jul-15 05:30N 40°40' W 074°01'0 0.0
2018-Jul-15 05:00N 40°40' W 074°01'0 0.0
2018-Jul-15 04:30N 40°40' W 074°01'0 0.0
2018-Jul-15 04:00N 40°40' W 074°01'0 0.0
2018-Jul-15 03:30N 40°40' W 074°01'0 0.0
2018-Jul-15 03:00N 40°40' W 074°01'0 0.0
2018-Jul-15 02:30N 40°40' W 074°01'0 0.0
2018-Jul-15 02:00N 40°40' W 074°01'0 0.0
2018-Jul-15 01:30N 40°40' W 074°01'0 0.0
2018-Jul-15 01:00N 40°40' W 074°01'0 0.0
2018-Jul-15 00:30N 40°40' W 074°01'0 0.0
2018-Jul-15 00:00N 40°40' W 074°01'0 0.0
2018-Jul-14 23:30N 40°40' W 074°01'0 0.0
2018-Jul-14 23:00N 40°40' W 074°01'0 0.0
2018-Jul-14 22:30N 40°40' W 074°01'0 0.0
2018-Jul-14 22:00N 40°40' W 074°01'0 0.0
2018-Jul-14 21:30N 40°40' W 074°01'0 0.0
2018-Jul-14 21:00N 40°40' W 074°01'0 0.0
2018-Jul-14 20:30N 40°40' W 074°01'0 0.0
2018-Jul-14 20:00N 40°40' W 074°01'0 0.0
2018-Jul-14 19:30N 40°40' W 074°01'0 0.0
2018-Jul-14 19:00N 40°40' W 074°01'0 0.0
2018-Jul-14 18:30N 40°40' W 074°01'0 0.0
2018-Jul-14 18:00N 40°40' W 074°01'0 0.0
2018-Jul-14 17:30N 40°40' W 074°01'0 0.0
2018-Jul-14 17:00N 40°40' W 074°01'0 0.0
2018-Jul-14 16:30N 40°40' W 074°01'0 0.0
2018-Jul-14 16:00N 40°40' W 074°01'0 0.0
2018-Jul-14 15:30N 40°40' W 074°01'0 0.0
2018-Jul-14 15:00N 40°40' W 074°01'0 0.0
2018-Jul-14 14:30N 40°40' W 074°01'0 0.0
2018-Jul-14 13:30N 40°40' W 074°01'0 0.0
2018-Jul-14 13:00N 40°40' W 074°01'0 0.0
2018-Jul-14 12:30N 40°40' W 074°01'0 0.0
2018-Jul-14 12:00N 40°40' W 074°01'0 0.0
2018-Jul-14 11:30N 40°40' W 074°01'0 0.0
2018-Jul-14 11:00N 40°40' W 074°01'0 0.0
2018-Jul-14 10:30N 40°40' W 074°01'0 0.0
2018-Jul-14 10:00N 40°40' W 074°01'0 0.0
2018-Jul-14 09:30N 40°40' W 074°01'0 0.0
2018-Jul-14 09:00N 40°40' W 074°01'0 0.0
2018-Jul-14 08:30N 40°40' W 074°01'0 0.0
2018-Jul-14 08:00N 40°40' W 074°01'0 0.0
2018-Jul-14 07:30N 40°40' W 074°01'0 0.0
2018-Jul-14 07:00N 40°40' W 074°01'0 0.0
2018-Jul-14 06:30N 40°40' W 074°01'0 0.0
2018-Jul-14 06:00N 40°40' W 074°01'0 0.0
2018-Jul-14 05:30N 40°40' W 074°01'0 0.0
2018-Jul-14 05:00N 40°40' W 074°01'0 0.0
2018-Jul-14 04:30N 40°40' W 074°01'0 0.0
2018-Jul-14 04:00N 40°40' W 074°01'0 0.0
2018-Jul-14 03:30N 40°40' W 074°01'0 0.0
2018-Jul-14 03:00N 40°40' W 074°01'0 0.0
2018-Jul-14 02:30N 40°40' W 074°01'0 0.0
2018-Jul-14 02:00N 40°40' W 074°01'0 0.0
2018-Jul-14 01:30N 40°40' W 074°01'0 0.0
2018-Jul-14 01:00N 40°40' W 074°01'0 0.0
2018-Jul-14 00:30N 40°40' W 074°01'0 0.0
2018-Jul-14 00:00N 40°40' W 074°01'0 0.0
2018-Jul-13 23:30N 40°40' W 074°01'0 0.0
2018-Jul-13 23:00N 40°40' W 074°01'0 0.0
2018-Jul-13 22:30N 40°40' W 074°01'0 0.0
2018-Jul-13 22:00N 40°40' W 074°01'0 0.0
2018-Jul-13 21:30N 40°40' W 074°01'0 0.0
2018-Jul-13 21:00N 40°40' W 074°01'0 0.0
2018-Jul-13 20:30N 40°40' W 074°01'0 0.0
2018-Jul-13 20:00N 40°40' W 074°01'0 0.0
2018-Jul-13 19:30N 40°40' W 074°01'0 0.0
2018-Jul-13 19:00N 40°40' W 074°01'0 0.0
2018-Jul-13 18:30N 40°40' W 074°01'0 0.0
2018-Jul-13 18:00N 40°40' W 074°01'0 0.0
2018-Jul-13 17:30N 40°40' W 074°01'0 0.0
2018-Jul-13 17:00N 40°40' W 074°01'0 0.0
2018-Jul-13 16:30N 40°40' W 074°01'0 0.0
2018-Jul-13 16:00N 40°40' W 074°01'0 0.0
2018-Jul-13 15:30N 40°40' W 074°01'0 0.0
2018-Jul-13 15:00N 40°40' W 074°01'0 0.0
2018-Jul-13 14:00N 40°40' W 074°01'0 0.0
2018-Jul-13 13:30N 40°40' W 074°01'0 0.0
2018-Jul-13 13:00N 40°40' W 074°01'0 0.0
2018-Jul-13 12:30N 40°40' W 074°01'0 0.0
2018-Jul-13 12:00N 40°40' W 074°01'0 0.0
2018-Jul-13 11:30N 40°40' W 074°01'0 0.0
2018-Jul-13 11:00N 40°40' W 074°01'0 0.0
2018-Jul-13 10:30N 40°40' W 074°01'0 0.0
2018-Jul-13 10:00N 40°40' W 074°01'0 0.0
2018-Jul-13 09:30N 40°40' W 074°01'0 0.0
2018-Jul-13 09:00N 40°40' W 074°01'0 0.0
2018-Jul-13 08:30N 40°40' W 074°01'0 0.0
2018-Jul-13 08:00N 40°40' W 074°01'0 0.0
2018-Jul-13 07:30N 40°40' W 074°01'  
Track history (hours):
 
Tides and Currents Weather Stations Pressure Air Temp Water Temp Dewpoint Dewpoint Depression Visibility Wind Speed Wind Dir Waves Ship Positions

Eastern Dawn

Owner: EASTERN BARGE SERVICES INC, SYOSSET, NY. More information available from US FCC via Universal Licensing System and Coast Guard Vessel Documentation Center.

Last reported at 2018-Jul-23 07:30 UTC. Time now 2018-Jul-23 07:31 UTC.
Position N 40°39' W 074°10'.

Length 14 m; draft 2.5 m.

Type: Towing. MMSI: 367349170.

Date/timePositionNaut miles runAvg speedWind from/ knotsBaromVisibWave heightAir tempDewpointWater temp
2018-Jul-23 07:30N 40°39' W 074°10'1 0.1
2018-Jul-22 14:52N 40°39' W 074°09'3 6.8
2018-Jul-22 14:24N 40°39' W 074°05'3 7.0
2018-Jul-22 14:00N 40°41' W 074°02'6 0.2
2018-Jul-21 06:49N 40°46' W 073°57'2 6.9
2018-Jul-21 06:30N 40°44' W 073°58'4 7.8
2018-Jul-21 06:00N 40°41' W 074°02'3 6.5
2018-Jul-21 05:30N 40°39' W 074°05'3 5.7
2018-Jul-21 05:00N 40°39' W 074°09'3 5.3
2018-Jul-21 04:29N 40°37' W 074°12'5 0.3
2018-Jul-20 12:49N 40°32' W 074°15'0 0.0
2018-Jul-20 12:30N 40°32' W 074°15'0 0.0
2018-Jul-20 12:00N 40°32' W 074°15'0 0.0
2018-Jul-20 10:51N 40°32' W 074°15'0 0.0
2018-Jul-20 10:29N 40°32' W 074°15'0 0.0
2018-Jul-20 09:35N 40°32' W 074°15'0 0.0
2018-Jul-20 09:30N 40°32' W 074°15'0 0.0
2018-Jul-20 08:59N 40°32' W 074°15'1 1.9
2018-Jul-20 08:21N 40°33' W 074°14'3 6.5
2018-Jul-20 07:51N 40°36' W 074°12'2 6.7
2018-Jul-20 07:30N 40°38' W 074°12'4 7.1
2018-Jul-20 07:00N 40°39' W 074°07'4 7.1
2018-Jul-20 06:30N 40°41' W 074°03'3 6.1
2018-Jul-20 06:00N 40°42' W 073°60'3 5.3
2018-Jul-20 05:30N 40°45' W 073°58'1 0.1
2018-Jul-19 16:52N 40°46' W 073°57'3 8.2
2018-Jul-19 16:30N 40°43' W 073°58'4 8.0
2018-Jul-19 16:00N 40°40' W 074°02'3 6.2
2018-Jul-19 15:30N 40°39' W 074°06'3 5.2
2018-Jul-19 14:59N 40°39' W 074°09'2 0.2
2018-Jul-19 01:40N 40°37' W 074°12'2 7.1
2018-Jul-19 01:22N 40°39' W 074°10'3 7.9
2018-Jul-19 01:00N 40°39' W 074°06'4 8.1
2018-Jul-19 00:30N 40°40' W 074°01'1 1.3
2018-Jul-19 00:00N 40°40' W 074°01'0 0.0
2018-Jul-18 23:30N 40°40' W 074°01'0 0.0
2018-Jul-18 23:00N 40°40' W 074°01'0 0.0
2018-Jul-18 22:30N 40°40' W 074°01'0 0.0
2018-Jul-18 22:00N 40°40' W 074°01'0 0.0
2018-Jul-18 21:29N 40°40' W 074°01'0 0.0
2018-Jul-18 21:00N 40°40' W 074°01'0 0.0
2018-Jul-18 20:30N 40°40' W 074°01'0 0.0
2018-Jul-18 20:00N 40°40' W 074°01'0 0.0
2018-Jul-18 19:30N 40°40' W 074°01'0 0.0
2018-Jul-18 19:00N 40°40' W 074°01'0 0.0
2018-Jul-18 18:30N 40°40' W 074°01'0 0.0
2018-Jul-18 18:00N 40°40' W 074°01'0 0.0
2018-Jul-18 17:30N 40°40' W 074°01'0 0.0
2018-Jul-18 17:00N 40°40' W 074°01'0 0.0
2018-Jul-18 16:30N 40°40' W 074°01'0 0.0
2018-Jul-18 16:00N 40°40' W 074°01'0 0.0
2018-Jul-18 15:30N 40°40' W 074°01'0 0.0
2018-Jul-18 15:00N 40°40' W 074°01'0 0.0
2018-Jul-18 14:30N 40°40' W 074°01'0 0.0
2018-Jul-18 13:30N 40°40' W 074°01'0 0.0
2018-Jul-18 13:00N 40°40' W 074°01'0 0.0
2018-Jul-18 12:30N 40°40' W 074°01'0 0.0
2018-Jul-18 12:00N 40°40' W 074°01'0 0.0
2018-Jul-18 11:30N 40°40' W 074°01'0 0.0
2018-Jul-18 10:30N 40°40' W 074°01'0 0.0
2018-Jul-18 10:00N 40°40' W 074°01'0 0.0
2018-Jul-18 09:30N 40°40' W 074°01'0 0.0
2018-Jul-18 09:00N 40°40' W 074°01'0 0.0
2018-Jul-18 08:30N 40°40' W 074°01'0 0.0
2018-Jul-18 08:00N 40°40' W 074°01'0 0.0
2018-Jul-18 07:30N 40°40' W 074°01'0 0.0
2018-Jul-18 07:00N 40°40' W 074°01'0 0.0
2018-Jul-18 06:30N 40°40' W 074°01'0 0.0
2018-Jul-18 06:00N 40°40' W 074°01'0 0.0
2018-Jul-18 05:30N 40°40' W 074°01'0 0.0
2018-Jul-18 05:00N 40°40' W 074°01'0 0.0
2018-Jul-18 04:30N 40°40' W 074°01'0 0.0
2018-Jul-18 04:00N 40°40' W 074°01'0 0.0
2018-Jul-18 03:30N 40°40' W 074°01'0 0.0
2018-Jul-18 03:00N 40°40' W 074°01'0 0.0
2018-Jul-18 02:30N 40°40' W 074°01'0 0.0
2018-Jul-18 02:00N 40°40' W 074°01'0 0.0
2018-Jul-18 01:30N 40°40' W 074°01'0 0.0
2018-Jul-18 01:00N 40°40' W 074°01'0 0.0
2018-Jul-18 00:30N 40°40' W 074°01'0 0.0
2018-Jul-18 00:00N 40°40' W 074°01'0 0.0
2018-Jul-17 23:30N 40°40' W 074°01'0 0.0
2018-Jul-17 23:00N 40°40' W 074°01'0 0.0
2018-Jul-17 22:30N 40°40' W 074°01'0 0.0
2018-Jul-17 22:00N 40°40' W 074°01'0 0.0
2018-Jul-17 21:30N 40°40' W 074°01'0 0.0
2018-Jul-17 21:00N 40°40' W 074°01'0 0.0
2018-Jul-17 20:30N 40°40' W 074°01'0 0.0
2018-Jul-17 20:00N 40°40' W 074°01'0 0.0
2018-Jul-17 19:30N 40°40' W 074°01'0 0.0
2018-Jul-17 19:00N 40°40' W 074°01'0 0.0
2018-Jul-17 18:30N 40°40' W 074°01'0 0.0
2018-Jul-17 18:00N 40°40' W 074°01'0 0.0
2018-Jul-17 17:30N 40°40' W 074°01'0 0.0
2018-Jul-17 17:00N 40°40' W 074°01'0 0.0
2018-Jul-17 16:30N 40°40' W 074°01'0 0.0
2018-Jul-17 16:00N 40°40' W 074°01'0 0.0
2018-Jul-17 15:30N 40°40' W 074°01'0 0.0
2018-Jul-17 15:00N 40°40' W 074°01'0 0.0
2018-Jul-17 14:30N 40°40' W 074°01'0 0.0
2018-Jul-17 14:00N 40°40' W 074°01'0 0.0
2018-Jul-17 13:30N 40°40' W 074°01'0 0.0
2018-Jul-17 13:00N 40°40' W 074°01'0 0.0
2018-Jul-17 12:30N 40°40' W 074°01'0 0.0
2018-Jul-17 12:00N 40°40' W 074°01'0 0.0
2018-Jul-17 11:30N 40°40' W 074°01'0 0.0
2018-Jul-17 11:00N 40°40' W 074°01'0 0.0
2018-Jul-17 10:30N 40°40' W 074°01'0 0.0
2018-Jul-17 10:00N 40°40' W 074°01'0 0.0
2018-Jul-17 09:30N 40°40' W 074°01'0 0.0
2018-Jul-17 09:00N 40°40' W 074°01'0 0.0
2018-Jul-17 08:30N 40°40' W 074°01'0 0.0
2018-Jul-17 08:00N 40°40' W 074°01'0 0.0
2018-Jul-17 07:30N 40°40' W 074°01'0 0.0
2018-Jul-17 07:00N 40°40' W 074°01'0 0.0
2018-Jul-17 06:30N 40°40' W 074°01'0 0.0
2018-Jul-17 06:00N 40°40' W 074°01'0 0.0
2018-Jul-17 05:30N 40°40' W 074°01'0 0.0
2018-Jul-17 05:00N 40°40' W 074°01'0 0.0
2018-Jul-17 04:30N 40°40' W 074°01'0 0.0
2018-Jul-17 04:00N 40°40' W 074°01'0 0.0
2018-Jul-17 03:30N 40°40' W 074°01'0 0.0
2018-Jul-17 03:00N 40°40' W 074°01'0 0.0
2018-Jul-17 02:30N 40°40' W 074°01'0 0.0
2018-Jul-17 02:00N 40°40' W 074°01'0 0.0
2018-Jul-17 01:30N 40°40' W 074°01'0 0.0
2018-Jul-17 01:00N 40°40' W 074°01'0 0.0
2018-Jul-17 00:30N 40°40' W 074°01'0 0.0
2018-Jul-16 23:30N 40°40' W 074°01'0 0.0
2018-Jul-16 23:00N 40°40' W 074°01'0 0.0
2018-Jul-16 22:30N 40°40' W 074°01'0 0.0
2018-Jul-16 22:00N 40°40' W 074°01'0 0.0
2018-Jul-16 21:30N 40°40' W 074°01'0 0.0
2018-Jul-16 21:00N 40°40' W 074°01'0 0.0
2018-Jul-16 20:30N 40°40' W 074°01'0 0.0
2018-Jul-16 20:00N 40°40' W 074°01'0 0.0
2018-Jul-16 19:30N 40°40' W 074°01'0 0.0
2018-Jul-16 19:00N 40°40' W 074°01'0 0.0
2018-Jul-16 18:30N 40°40' W 074°01'0 0.0
2018-Jul-16 18:00N 40°40' W 074°01'0 0.0
2018-Jul-16 17:30N 40°40' W 074°01'0 0.0
2018-Jul-16 17:00N 40°40' W 074°01'0 0.0
2018-Jul-16 16:30N 40°40' W 074°01'0 0.0
2018-Jul-16 16:00N 40°40' W 074°01'0 0.0
2018-Jul-16 15:30N 40°40' W 074°01'0 0.0
2018-Jul-16 15:00N 40°40' W 074°01'0 0.0
2018-Jul-16 14:30N 40°40' W 074°01'0 0.0
2018-Jul-16 14:00N 40°40' W 074°01'0 0.0
2018-Jul-16 13:30N 40°40' W 074°01'0 0.0
2018-Jul-16 13:00N 40°40' W 074°01'0 0.0
2018-Jul-16 12:30N 40°40' W 074°01'0 0.0
2018-Jul-16 12:00N 40°40' W 074°01'0 0.0
2018-Jul-16 11:30N 40°40' W 074°01'0 0.0
2018-Jul-16 11:00N 40°40' W 074°01'0 0.0
2018-Jul-16 10:31N 40°40' W 074°01'0 0.0
2018-Jul-16 10:01N 40°40' W 074°01'0 0.0
2018-Jul-16 09:30N 40°40' W 074°01'0 0.0
2018-Jul-16 09:00N 40°40' W 074°01'0 0.0
2018-Jul-16 08:30N 40°40' W 074°01'0 0.0
2018-Jul-16 08:00N 40°40' W 074°01'0 0.0
2018-Jul-16 07:30N 40°40' W 074°01'0 0.0
2018-Jul-16 07:00N 40°40' W 074°01'0 0.0
2018-Jul-16 06:30N 40°40' W 074°01'0 0.0
2018-Jul-16 06:00N 40°40' W 074°01'0 0.0
2018-Jul-16 05:30N 40°40' W 074°01'0 0.0
2018-Jul-16 05:00N 40°40' W 074°01'0 0.0
2018-Jul-16 04:30N 40°40' W 074°01'0 0.0
2018-Jul-16 04:00N 40°40' W 074°01'0 0.0
2018-Jul-16 03:30N 40°40' W 074°01'0 0.0
2018-Jul-16 03:00N 40°40' W 074°01'0 0.0
2018-Jul-16 02:30N 40°40' W 074°01'0 0.0
2018-Jul-16 02:00N 40°40' W 074°01'0 0.0
2018-Jul-16 01:30N 40°40' W 074°01'0 0.0
2018-Jul-16 01:00N 40°40' W 074°01'0 0.0
2018-Jul-16 00:30N 40°40' W 074°01'0 0.0
2018-Jul-16 00:00N 40°40' W 074°01'0 0.0
2018-Jul-15 23:30N 40°40' W 074°01'0 0.0
2018-Jul-15 23:00N 40°40' W 074°01'0 0.0
2018-Jul-15 22:30N 40°40' W 074°01'0 0.0
2018-Jul-15 22:00N 40°40' W 074°01'0 0.0
2018-Jul-15 21:30N 40°40' W 074°01'0 0.0
2018-Jul-15 21:00N 40°40' W 074°01'0 0.0
2018-Jul-15 20:30N 40°40' W 074°01'0 0.0
2018-Jul-15 20:00N 40°40' W 074°01'0 0.0
2018-Jul-15 19:30N 40°40' W 074°01'0 0.0
2018-Jul-15 19:00N 40°40' W 074°01'0 0.0
2018-Jul-15 18:30N 40°40' W 074°01'0 0.0
2018-Jul-15 18:00N 40°40' W 074°01'0 0.0
2018-Jul-15 17:30N 40°40' W 074°01'0 0.0
2018-Jul-15 17:00N 40°40' W 074°01'0 0.0
2018-Jul-15 16:30N 40°40' W 074°01'0 0.0
2018-Jul-15 16:00N 40°40' W 074°01'0 0.0
2018-Jul-15 15:30N 40°40' W 074°01'0 0.0
2018-Jul-15 15:00N 40°40' W 074°01'0 0.0
2018-Jul-15 14:30N 40°40' W 074°01'0 0.0
2018-Jul-15 13:58N 40°40' W 074°01'0 0.0
2018-Jul-15 13:30N 40°40' W 074°01'0 0.0
2018-Jul-15 13:00N 40°40' W 074°01'0 0.0
2018-Jul-15 12:30N 40°40' W 074°01'0 0.0
2018-Jul-15 12:00N 40°40' W 074°01'0 0.0
2018-Jul-15 11:30N 40°40' W 074°01'0 0.0
2018-Jul-15 10:58N 40°40' W 074°01'0 0.0
2018-Jul-15 10:30N 40°40' W 074°01'0 0.0
2018-Jul-15 10:00N 40°40' W 074°01'0 0.0
2018-Jul-15 09:30N 40°40' W 074°01'0 0.0
2018-Jul-15 09:00N 40°40' W 074°01'0 0.0
2018-Jul-15 08:30N 40°40' W 074°01'0 0.0
2018-Jul-15 08:00N 40°40' W 074°01'0 0.0
2018-Jul-15 07:30N 40°40' W 074°01'0 0.0
2018-Jul-15 07:00N 40°40' W 074°01'0 0.0
2018-Jul-15 06:30N 40°40' W 074°01'0 0.0
2018-Jul-15 06:00N 40°40' W 074°01'0 0.0
2018-Jul-15 05:30N 40°40' W 074°01'0 0.0
2018-Jul-15 05:00N 40°40' W 074°01'0 0.0
2018-Jul-15 04:30N 40°40' W 074°01'0 0.0
2018-Jul-15 04:00N 40°40' W 074°01'0 0.0
2018-Jul-15 03:30N 40°40' W 074°01'0 0.0
2018-Jul-15 03:00N 40°40' W 074°01'0 0.0
2018-Jul-15 02:30N 40°40' W 074°01'0 0.0
2018-Jul-15 02:00N 40°40' W 074°01'0 0.0
2018-Jul-15 01:30N 40°40' W 074°01'0 0.0
2018-Jul-15 01:00N 40°40' W 074°01'0 0.0
2018-Jul-15 00:30N 40°40' W 074°01'0 0.0
2018-Jul-15 00:00N 40°40' W 074°01'0 0.0
2018-Jul-14 23:30N 40°40' W 074°01'0 0.0
2018-Jul-14 23:00N 40°40' W 074°01'0 0.0
2018-Jul-14 22:30N 40°40' W 074°01'0 0.0
2018-Jul-14 22:00N 40°40' W 074°01'0 0.0
2018-Jul-14 21:30N 40°40' W 074°01'0 0.0
2018-Jul-14 21:00N 40°40' W 074°01'0 0.0
2018-Jul-14 20:30N 40°40' W 074°01'0 0.0
2018-Jul-14 20:00N 40°40' W 074°01'0 0.0
2018-Jul-14 19:30N 40°40' W 074°01'0 0.0
2018-Jul-14 19:00N 40°40' W 074°01'0 0.0
2018-Jul-14 18:30N 40°40' W 074°01'0 0.0
2018-Jul-14 18:00N 40°40' W 074°01'0 0.0
2018-Jul-14 17:30N 40°40' W 074°01'0 0.0
2018-Jul-14 17:00N 40°40' W 074°01'0 0.0
2018-Jul-14 16:30N 40°40' W 074°01'0 0.0
2018-Jul-14 16:00N 40°40' W 074°01'0 0.0
2018-Jul-14 15:30N 40°40' W 074°01'0 0.0
2018-Jul-14 15:00N 40°40' W 074°01'0 0.0
2018-Jul-14 14:30N 40°40' W 074°01'0 0.0
2018-Jul-14 13:30N 40°40' W 074°01'0 0.0
2018-Jul-14 13:00N 40°40' W 074°01'0 0.0
2018-Jul-14 12:30N 40°40' W 074°01'0 0.0
2018-Jul-14 12:00N 40°40' W 074°01'0 0.0
2018-Jul-14 11:30N 40°40' W 074°01'0 0.0
2018-Jul-14 11:00N 40°40' W 074°01'0 0.0
2018-Jul-14 10:30N 40°40' W 074°01'0 0.0
2018-Jul-14 10:00N 40°40' W 074°01'0 0.0
2018-Jul-14 09:30N 40°40' W 074°01'0 0.0
2018-Jul-14 09:00N 40°40' W 074°01'0 0.0
2018-Jul-14 08:30N 40°40' W 074°01'0 0.0
2018-Jul-14 08:00N 40°40' W 074°01'0 0.0
2018-Jul-14 07:30N 40°40' W 074°01'0 0.0
2018-Jul-14 07:00N 40°40' W 074°01'0 0.0
2018-Jul-14 06:30N 40°40' W 074°01'0 0.0
2018-Jul-14 06:00N 40°40' W 074°01'0 0.0
2018-Jul-14 05:30N 40°40' W 074°01'0 0.0
2018-Jul-14 05:00N 40°40' W 074°01'0 0.0
2018-Jul-14 04:30N 40°40' W 074°01'0 0.0
2018-Jul-14 04:00N 40°40' W 074°01'0 0.0
2018-Jul-14 03:30N 40°40' W 074°01'0 0.0
2018-Jul-14 03:00N 40°40' W 074°01'0 0.0
2018-Jul-14 02:30N 40°40' W 074°01'0 0.0
2018-Jul-14 02:00N 40°40' W 074°01'0 0.0
2018-Jul-14 01:30N 40°40' W 074°01'0 0.0
2018-Jul-14 01:00N 40°40' W 074°01'0 0.0
2018-Jul-14 00:30N 40°40' W 074°01'0 0.0
2018-Jul-14 00:00N 40°40' W 074°01'0 0.0
2018-Jul-13 23:30N 40°40' W 074°01'0 0.0
2018-Jul-13 23:00N 40°40' W 074°01'0 0.0
2018-Jul-13 22:30N 40°40' W 074°01'0 0.0
2018-Jul-13 22:00N 40°40' W 074°01'0 0.0
2018-Jul-13 21:30N 40°40' W 074°01'0 0.0
2018-Jul-13 21:00N 40°40' W 074°01'0 0.0
2018-Jul-13 20:30N 40°40' W 074°01'0 0.0
2018-Jul-13 20:00N 40°40' W 074°01'0 0.0
2018-Jul-13 19:30N 40°40' W 074°01'0 0.0
2018-Jul-13 19:00N 40°40' W 074°01'0 0.0
2018-Jul-13 18:30N 40°40' W 074°01'0 0.0
2018-Jul-13 18:00N 40°40' W 074°01'0 0.0
2018-Jul-13 17:30N 40°40' W 074°01'0 0.0
2018-Jul-13 17:00N 40°40' W 074°01'0 0.0
2018-Jul-13 16:30N 40°40' W 074°01'0 0.0
2018-Jul-13 16:00N 40°40' W 074°01'0 0.0
2018-Jul-13 15:30N 40°40' W 074°01'0 0.0
2018-Jul-13 15:00N 40°40' W 074°01'0 0.0
2018-Jul-13 14:00N 40°40' W 074°01'0 0.0
2018-Jul-13 13:30N 40°40' W 074°01'0 0.0
2018-Jul-13 13:00N 40°40' W 074°01'0 0.0
2018-Jul-13 12:30N 40°40' W 074°01'0 0.0
2018-Jul-13 12:00N 40°40' W 074°01'0 0.0
2018-Jul-13 11:30N 40°40' W 074°01'0 0.0
2018-Jul-13 11:00N 40°40' W 074°01'0 0.0
2018-Jul-13 10:30N 40°40' W 074°01'0 0.0
2018-Jul-13 10:00N 40°40' W 074°01'0 0.0
2018-Jul-13 09:30N 40°40' W 074°01'0 0.0
2018-Jul-13 09:00N 40°40' W 074°01'0 0.0
2018-Jul-13 08:30N 40°40' W 074°01'0 0.0
2018-Jul-13 08:00N 40°40' W 074°01'0 0.0
2018-Jul-13 07:30N 40°40' W 074°01'  

Dump ship's entire track history